Lakeway's Hourly Summary for Saturday, May 12, 2018
Hour Temp
(f)
RH
(%)
Solar Rad.
(MJ/m2)
Rainfall
(in)
Wind
(mph)
5/12/2018 12:00 AM 74 83 0 0 3.8
5/12/2018 1:00 AM 73 84 0 0 3.83
5/12/2018 2:00 AM 73 84 0 0 3.83
5/12/2018 3:00 AM 73 86 0 0 2.84
5/12/2018 4:00 AM 72 87 0 0 2.69
5/12/2018 5:00 AM 72 88 0 0 2.61
5/12/2018 6:00 AM 71 89 0.01 0 2.73
5/12/2018 7:00 AM 71 89 0.16 0 2.73
5/12/2018 8:00 AM 72 86 0.39 0 2.5
5/12/2018 9:00 AM 73 83 0.75 0 2.77
5/12/2018 10:00 AM 78 69 1.84 0 2.77
5/12/2018 11:00 AM 82 56 2.76 0 3.13
5/12/2018 12:00 PM 85 50 3.35 0 3.52
5/12/2018 1:00 PM 85 48 3.35 0 3.52
5/12/2018 2:00 PM 87 46 3.13 0 3.48
5/12/2018 3:00 PM 88 44 3.13 0 3.07
5/12/2018 4:00 PM 89 40 2.54 0 3.26
5/12/2018 5:00 PM 89 39 2.33 0 3.26
5/12/2018 6:00 PM 89 40 1.76 0 3.26
5/12/2018 7:00 PM 88 41 1.1 0 3.1
5/12/2018 8:00 PM 86 49 0.3 0 2.83
5/12/2018 9:00 PM 82 60 0.01 0 3.4
5/12/2018 10:00 PM 80 69 0 0 3.61
5/12/2018 11:00 PM 78 75 0 0 3.61
Data Summary 79 66 26.91 0.00 3.17